Time;durP1;ratioP1;P1;durP2;ratioP2;P2;SDS_P1;SDS_P2;PMS_P1;PMS_P2;Temp;Humidity;BMP_temperature;BMP_pressure;BME280_temperature;BME280_humidity;BME280_pressure;Samples;Min_cycle;Max_cycle;Signal;HPM_P1;HPM_P2
2023/05/04 00:00:34;;;;;;;5.47;2.08;;;;;;;;;;5040105;28;20057;-70
2023/05/04 00:03:02;;;;;;;6.90;2.03;;;;;;;;;;5039546;28;20055;-71
2023/05/04 00:05:31;;;;;;;4.28;1.95;;;;;;;;;;5039387;28;20037;-70
2023/05/04 00:07:59;;;;;;;6.78;1.70;;;;;;;;;;5038179;28;20422;-70
2023/05/04 00:10:28;;;;;;;6.72;3.42;;;;;;;;;;5040270;28;20041;-70
2023/05/04 00:12:57;;;;;;;5.13;1.48;;;;;;;;;;5041601;28;20049;-70
2023/05/04 00:15:26;;;;;;;4.47;2.00;;;;;;;;;;5038837;28;20061;-70
2023/05/04 00:17:55;;;;;;;4.70;1.95;;;;;;;;;;5038310;28;20045;-70
2023/05/04 00:20:23;;;;;;;15.60;2.55;;;;;;;;;;5040289;28;20473;-70
2023/05/04 00:22:52;;;;;;;7.75;3.20;;;;;;;;;;5038787;28;20055;-70
2023/05/04 00:25:20;;;;;;;10.75;3.53;;;;;;;;;;5040085;28;20053;-70
2023/05/04 00:27:49;;;;;;;5.57;2.38;;;;;;;;;;5043203;28;20049;-70
2023/05/04 00:30:19;;;;;;;5.55;2.13;;;;;;;;;;5039959;28;20060;-70
2023/05/04 00:32:47;;;;;;;6.47;2.42;;;;;;;;;;5042550;28;20049;-70
2023/05/04 00:35:16;;;;;;;5.07;1.60;;;;;;;;;;5043284;28;20060;-70
2023/05/04 00:37:45;;;;;;;6.60;1.98;;;;;;;;;;5041530;28;20131;-70
2023/05/04 00:40:13;;;;;;;7.05;2.42;;;;;;;;;;5043671;28;20075;-70
2023/05/04 00:42:42;;;;;;;5.20;2.58;;;;;;;;;;5043588;28;20049;-70
2023/05/04 00:45:10;;;;;;;3.20;2.13;;;;;;;;;;5042254;28;20554;-70
2023/05/04 00:47:40;;;;;;;4.80;2.10;;;;;;;;;;5043479;28;20053;-70
2023/05/04 00:50:09;;;;;;;4.88;2.35;;;;;;;;;;5041122;28;20324;-70
2023/05/04 00:52:38;;;;;;;6.68;2.55;;;;;;;;;;5042838;28;20063;-70
2023/05/04 00:55:06;;;;;;;6.53;2.15;;;;;;;;;;5043269;28;20092;-70
2023/05/04 00:57:35;;;;;;;6.13;2.10;;;;;;;;;;5041281;28;20060;-70
2023/05/04 01:00:03;;;;;;;5.85;2.53;;;;;;;;;;5040533;28;20360;-70
2023/05/04 01:02:32;;;;;;;6.05;2.38;;;;;;;;;;5038912;28;20049;-70
2023/05/04 01:05:02;;;;;;;4.55;2.15;;;;;;;;;;5045589;28;20143;-70
2023/05/04 01:07:33;;;;;;;9.82;2.42;;;;;;;;;;5040123;28;20452;-70
2023/05/04 01:10:04;;;;;;;2.33;1.73;;;;;;;;;;5043359;28;20081;-70
2023/05/04 01:12:35;;;;;;;9.45;2.17;;;;;;;;;;5036062;28;20064;-70
2023/05/04 01:15:03;;;;;;;7.03;2.22;;;;;;;;;;5042433;28;20065;-69
2023/05/04 01:17:32;;;;;;;2.80;1.65;;;;;;;;;;5040944;28;20037;-70
2023/05/04 01:20:02;;;;;;;3.50;1.98;;;;;;;;;;5045563;28;20060;-70
2023/05/04 01:22:33;;;;;;;6.30;2.88;;;;;;;;;;5039384;28;20084;-70
2023/05/04 01:25:01;;;;;;;3.78;2.38;;;;;;;;;;5045530;28;20048;-70
2023/05/04 01:27:36;;;;;;;7.20;2.35;;;;;;;;;;5042383;28;20049;-70
2023/05/04 01:30:08;;;;;;;4.70;2.03;;;;;;;;;;5041217;28;20452;-70
2023/05/04 01:32:37;;;;;;;6.60;2.00;;;;;;;;;;5040500;28;20056;-70
2023/05/04 01:35:06;;;;;;;3.15;1.77;;;;;;;;;;5043721;28;20045;-69
2023/05/04 01:37:35;;;;;;;6.88;2.13;;;;;;;;;;5041630;28;20049;-70
2023/05/04 01:40:04;;;;;;;5.38;1.95;;;;;;;;;;5043824;28;20049;-70
2023/05/04 01:42:33;;;;;;;3.63;2.17;;;;;;;;;;5042439;28;20128;-70
2023/05/04 01:45:02;;;;;;;8.88;2.65;;;;;;;;;;5043281;28;20288;-68
2023/05/04 01:47:31;;;;;;;6.97;2.20;;;;;;;;;;5037157;28;20335;-70
2023/05/04 01:49:59;;;;;;;3.80;2.20;;;;;;;;;;5040169;28;20045;-70
2023/05/04 01:52:28;;;;;;;4.53;2.35;;;;;;;;;;5036505;28;20049;-70
2023/05/04 01:54:57;;;;;;;6.05;2.92;;;;;;;;;;5042472;28;20063;-70
2023/05/04 01:57:26;;;;;;;5.53;2.45;;;;;;;;;;5041199;28;20044;-70
2023/05/04 01:59:54;;;;;;;4.80;2.38;;;;;;;;;;5042641;28;20056;-70
2023/05/04 02:02:22;;;;;;;3.10;2.15;;;;;;;;;;5039085;28;20060;-70
2023/05/04 02:04:50;;;;;;;8.75;3.13;;;;;;;;;;5042408;28;20071;-70
2023/05/04 02:07:19;;;;;;;7.63;2.78;;;;;;;;;;5042445;28;20067;-70
2023/05/04 02:09:47;;;;;;;4.85;2.40;;;;;;;;;;5041623;28;20126;-70
2023/05/04 02:12:17;;;;;;;3.47;2.25;;;;;;;;;;5042774;28;20044;-70
2023/05/04 02:14:45;;;;;;;5.30;2.17;;;;;;;;;;5040906;28;20423;-70
2023/05/04 02:17:13;;;;;;;7.65;1.55;;;;;;;;;;5041470;28;20040;-70
2023/05/04 02:19:42;;;;;;;8.95;2.90;;;;;;;;;;5041551;28;20045;-70
2023/05/04 02:22:10;;;;;;;3.30;1.67;;;;;;;;;;5040636;28;20151;-70
2023/05/04 02:24:39;;;;;;;6.45;3.15;;;;;;;;;;5037491;28;20052;-70
2023/05/04 02:27:07;;;;;;;6.00;2.58;;;;;;;;;;5040597;28;20139;-69
2023/05/04 02:29:37;;;;;;;3.20;1.90;;;;;;;;;;5039215;28;20048;-70
2023/05/04 02:32:06;;;;;;;3.67;1.50;;;;;;;;;;5039710;28;20143;-69
2023/05/04 02:34:35;;;;;;;5.57;2.35;;;;;;;;;;5040669;28;20509;-70
2023/05/04 02:37:03;;;;;;;3.95;1.52;;;;;;;;;;5039586;28;20697;-70
2023/05/04 02:39:34;;;;;;;8.32;3.85;;;;;;;;;;5042988;28;20049;-70
2023/05/04 02:42:02;;;;;;;5.85;2.97;;;;;;;;;;5041079;28;20045;-70
2023/05/04 02:44:31;;;;;;;3.00;1.83;;;;;;;;;;5039775;28;20139;-70
2023/05/04 02:47:01;;;;;;;6.05;1.77;;;;;;;;;;5037291;28;20646;-69
2023/05/04 02:49:29;;;;;;;4.40;2.10;;;;;;;;;;5041365;28;20053;-70
2023/05/04 02:51:59;;;;;;;8.35;3.15;;;;;;;;;;5039390;28;20045;-70
2023/05/04 02:54:28;;;;;;;6.28;2.25;;;;;;;;;;5038898;28;20084;-71
2023/05/04 02:56:56;;;;;;;10.25;2.80;;;;;;;;;;5039939;28;20406;-69
2023/05/04 02:59:24;;;;;;;3.20;1.92;;;;;;;;;;5039072;28;20048;-70
2023/05/04 03:01:52;;;;;;;6.57;2.33;;;;;;;;;;5040121;28;20048;-70
2023/05/04 03:04:22;;;;;;;4.53;2.20;;;;;;;;;;5042493;28;20056;-70
2023/05/04 03:06:51;;;;;;;3.50;2.35;;;;;;;;;;5042820;28;20242;-69
2023/05/04 03:09:19;;;;;;;7.47;2.47;;;;;;;;;;5038517;28;20053;-70
2023/05/04 03:11:47;;;;;;;3.40;1.55;;;;;;;;;;5037671;28;20040;-70
2023/05/04 03:14:16;;;;;;;3.60;2.67;;;;;;;;;;5040725;28;20045;-70
2023/05/04 03:16:44;;;;;;;2.00;1.65;;;;;;;;;;5041177;28;20072;-70
2023/05/04 03:19:13;;;;;;;7.25;2.88;;;;;;;;;;5040220;28;20103;-70
2023/05/04 03:21:42;;;;;;;6.97;2.28;;;;;;;;;;5041714;28;20240;-71
2023/05/04 03:24:11;;;;;;;3.30;1.95;;;;;;;;;;5037318;28;20044;-70
2023/05/04 03:26:39;;;;;;;3.60;1.20;;;;;;;;;;5040048;28;21704;-71
2023/05/04 03:29:08;;;;;;;3.63;2.05;;;;;;;;;;5039462;28;20052;-70
2023/05/04 03:31:36;;;;;;;5.50;2.15;;;;;;;;;;5038865;28;20071;-69
2023/05/04 03:34:04;;;;;;;2.92;1.70;;;;;;;;;;5041079;28;20056;-69
2023/05/04 03:36:33;;;;;;;5.72;2.90;;;;;;;;;;5040660;28;20711;-69
2023/05/04 03:39:02;;;;;;;10.23;2.58;;;;;;;;;;5040409;28;20099;-70
2023/05/04 03:41:31;;;;;;;3.28;1.77;;;;;;;;;;5040952;28;20532;-69
2023/05/04 03:43:59;;;;;;;3.92;2.42;;;;;;;;;;5040641;28;20490;-69
2023/05/04 03:46:27;;;;;;;4.13;2.17;;;;;;;;;;5039963;28;20136;-69
2023/05/04 03:48:56;;;;;;;7.38;2.85;;;;;;;;;;5040918;28;20045;-70
2023/05/04 03:51:24;;;;;;;2.97;2.08;;;;;;;;;;5043888;28;20043;-70
2023/05/04 03:53:53;;;;;;;4.70;2.17;;;;;;;;;;5038226;28;20045;-69
2023/05/04 03:56:22;;;;;;;4.85;2.38;;;;;;;;;;5041357;28;20080;-69
2023/05/04 03:58:51;;;;;;;5.03;2.55;;;;;;;;;;5037658;28;20058;-69
2023/05/04 04:01:19;;;;;;;5.22;2.58;;;;;;;;;;5037839;28;20537;-69
2023/05/04 04:03:47;;;;;;;4.90;1.85;;;;;;;;;;5037573;28;20048;-70
2023/05/04 04:06:16;;;;;;;10.20;3.42;;;;;;;;;;5036284;28;20052;-70
2023/05/04 04:08:45;;;;;;;9.65;4.07;;;;;;;;;;5032445;28;21143;-69
2023/05/04 04:11:13;;;;;;;4.38;2.72;;;;;;;;;;5033722;28;20289;-69
2023/05/04 04:13:43;;;;;;;9.77;3.65;;;;;;;;;;5038024;28;20056;-69
2023/05/04 04:16:11;;;;;;;11.55;2.97;;;;;;;;;;5032856;28;20037;-69
2023/05/04 04:18:40;;;;;;;5.30;2.00;;;;;;;;;;5039959;28;20071;-70
2023/05/04 04:21:09;;;;;;;6.50;1.77;;;;;;;;;;5038074;28;20583;-69
2023/05/04 04:23:37;;;;;;;8.10;2.70;;;;;;;;;;5036855;28;20568;-69
2023/05/04 04:26:06;;;;;;;8.57;2.35;;;;;;;;;;5039323;28;21347;-69
2023/05/04 04:28:34;;;;;;;5.90;3.10;;;;;;;;;;5040203;28;20055;-69
2023/05/04 04:31:04;;;;;;;5.43;2.42;;;;;;;;;;5035176;28;20041;-69
2023/05/04 04:33:33;;;;;;;5.65;2.35;;;;;;;;;;5038622;28;20402;-70
2023/05/04 04:36:03;;;;;;;9.50;3.38;;;;;;;;;;5038067;28;20041;-69
2023/05/04 04:38:31;;;;;;;6.93;2.70;;;;;;;;;;5039677;28;20053;-69
2023/05/04 04:41:00;;;;;;;12.43;2.45;;;;;;;;;;5033034;28;20991;-70
2023/05/04 04:43:28;;;;;;;8.18;2.15;;;;;;;;;;5041369;28;20069;-70
2023/05/04 04:45:57;;;;;;;3.28;1.38;;;;;;;;;;5034698;28;20050;-69
2023/05/04 04:48:27;;;;;;;4.97;2.25;;;;;;;;;;5040727;28;20501;-69
2023/05/04 04:50:56;;;;;;;10.20;2.40;;;;;;;;;;5035454;28;20525;-69
2023/05/04 04:53:24;;;;;;;4.40;3.28;;;;;;;;;;5028710;28;20148;-69
2023/05/04 04:55:53;;;;;;;8.13;2.40;;;;;;;;;;5032370;28;20489;-70
2023/05/04 04:58:21;;;;;;;8.95;2.85;;;;;;;;;;5035795;28;20135;-70
2023/05/04 05:00:50;;;;;;;6.10;2.08;;;;;;;;;;5037588;28;20560;-69
2023/05/04 05:03:19;;;;;;;3.35;2.50;;;;;;;;;;5043447;28;20053;-69
2023/05/04 05:05:49;;;;;;;7.70;2.35;;;;;;;;;;5036816;28;20033;-69
2023/05/04 05:08:17;;;;;;;3.88;1.90;;;;;;;;;;5042572;28;20055;-70
2023/05/04 05:10:45;;;;;;;5.20;1.70;;;;;;;;;;5041135;28;20183;-69
2023/05/04 05:13:14;;;;;;;5.82;2.13;;;;;;;;;;5044733;28;20075;-68
2023/05/04 05:15:42;;;;;;;8.38;2.97;;;;;;;;;;5035685;28;20510;-68
2023/05/04 05:18:11;;;;;;;7.22;3.38;;;;;;;;;;5040695;28;20041;-69
2023/05/04 05:20:39;;;;;;;9.13;2.90;;;;;;;;;;5041379;28;20103;-70
2023/05/04 05:23:09;;;;;;;8.93;1.98;;;;;;;;;;5046153;28;20053;-70
2023/05/04 05:25:37;;;;;;;5.97;2.58;;;;;;;;;;5043704;28;20509;-70
2023/05/04 05:28:06;;;;;;;6.25;2.80;;;;;;;;;;5042666;28;20049;-68
2023/05/04 05:30:34;;;;;;;7.50;2.95;;;;;;;;;;5041950;28;20091;-68
2023/05/04 05:33:03;;;;;;;11.80;3.25;;;;;;;;;;5044586;28;20049;-69
2023/05/04 05:35:32;;;;;;;6.38;2.58;;;;;;;;;;5043947;28;20135;-69
2023/05/04 05:38:00;;;;;;;9.50;2.90;;;;;;;;;;5041427;28;20075;-69
2023/05/04 05:40:30;;;;;;;15.73;2.58;;;;;;;;;;5047167;28;20470;-69
2023/05/04 05:42:59;;;;;;;11.07;2.83;;;;;;;;;;5043094;28;20075;-69
2023/05/04 05:45:27;;;;;;;8.88;3.42;;;;;;;;;;5042536;28;20076;-69
2023/05/04 05:47:56;;;;;;;8.25;2.70;;;;;;;;;;5046057;28;20397;-69
2023/05/04 05:50:25;;;;;;;5.03;2.85;;;;;;;;;;5044788;28;20041;-70
2023/05/04 05:52:53;;;;;;;5.20;2.83;;;;;;;;;;5043949;28;20052;-69
2023/05/04 05:55:21;;;;;;;4.82;2.60;;;;;;;;;;5042732;28;20569;-69
2023/05/04 05:57:51;;;;;;;4.18;2.70;;;;;;;;;;5044612;28;20040;-69
2023/05/04 06:00:20;;;;;;;6.43;2.97;;;;;;;;;;5046340;28;20099;-70
2023/05/04 06:02:48;;;;;;;8.85;2.83;;;;;;;;;;5045496;28;20080;-69
2023/05/04 06:05:17;;;;;;;8.38;2.42;;;;;;;;;;5044470;28;20503;-69
2023/05/04 06:07:45;;;;;;;6.90;2.45;;;;;;;;;;5043555;28;20056;-69
2023/05/04 06:10:14;;;;;;;4.97;2.78;;;;;;;;;;5041500;28;20048;-69
2023/05/04 06:12:42;;;;;;;7.68;3.70;;;;;;;;;;5040383;28;20099;-69
2023/05/04 06:15:13;;;;;;;6.78;2.30;;;;;;;;;;5034393;28;20045;-70
2023/05/04 06:17:41;;;;;;;9.68;3.75;;;;;;;;;;5039278;28;20080;-69
2023/05/04 06:20:10;;;;;;;6.15;2.55;;;;;;;;;;5038115;28;20130;-71
2023/05/04 06:22:39;;;;;;;7.03;2.70;;;;;;;;;;5042475;28;20139;-68
2023/05/04 06:25:08;;;;;;;9.25;3.58;;;;;;;;;;5038835;28;20520;-68
2023/05/04 06:27:36;;;;;;;7.43;2.83;;;;;;;;;;5042594;28;20076;-69
2023/05/04 06:30:05;;;;;;;10.18;3.03;;;;;;;;;;5040684;28;20057;-69
2023/05/04 06:32:36;;;;;;;8.60;3.58;;;;;;;;;;5044821;28;20158;-69
2023/05/04 06:35:04;;;;;;;7.13;2.67;;;;;;;;;;5041700;28;20037;-70
2023/05/04 06:37:33;;;;;;;4.20;2.63;;;;;;;;;;5042679;28;20569;-71
2023/05/04 06:40:02;;;;;;;7.28;3.00;;;;;;;;;;5042815;28;20131;-70
2023/05/04 06:42:31;;;;;;;4.72;2.13;;;;;;;;;;5043635;28;20109;-71
2023/05/04 06:44:59;;;;;;;4.20;2.17;;;;;;;;;;5043075;28;21182;-71
2023/05/04 06:47:28;;;;;;;7.50;2.45;;;;;;;;;;5046165;28;20055;-70
2023/05/04 06:49:57;;;;;;;5.75;2.28;;;;;;;;;;5045230;28;20076;-70
2023/05/04 06:52:28;;;;;;;5.45;3.53;;;;;;;;;;5044489;28;20041;-69
2023/05/04 06:54:58;;;;;;;12.10;2.15;;;;;;;;;;5042069;28;20064;-70
2023/05/04 06:57:26;;;;;;;2.85;1.92;;;;;;;;;;5042158;28;20087;-69
2023/05/04 06:59:55;;;;;;;4.03;2.40;;;;;;;;;;5040927;28;20504;-70
2023/05/04 07:02:23;;;;;;;5.47;2.30;;;;;;;;;;5042119;28;20710;-70
2023/05/04 07:04:53;;;;;;;4.53;1.85;;;;;;;;;;5041433;28;20148;-70
2023/05/04 07:07:23;;;;;;;8.32;2.17;;;;;;;;;;5039929;28;20135;-70
2023/05/04 07:09:51;;;;;;;2.58;1.90;;;;;;;;;;5043499;28;20168;-70
2023/05/04 07:12:20;;;;;;;4.00;2.10;;;;;;;;;;5043393;28;20041;-70
2023/05/04 07:14:48;;;;;;;3.70;1.85;;;;;;;;;;5040711;28;20144;-70
2023/05/04 07:17:19;;;;;;;4.25;2.00;;;;;;;;;;5040944;28;20087;-70
2023/05/04 07:19:48;;;;;;;5.20;1.77;;;;;;;;;;5041985;28;20076;-70
2023/05/04 07:22:17;;;;;;;5.80;1.73;;;;;;;;;;5042411;28;20161;-70
2023/05/04 07:24:46;;;;;;;5.15;1.88;;;;;;;;;;5042201;28;20056;-70
2023/05/04 07:27:15;;;;;;;4.90;2.88;;;;;;;;;;5039357;28;20053;-71
2023/05/04 07:29:43;;;;;;;3.05;1.30;;;;;;;;;;5040553;28;20048;-70
2023/05/04 07:32:11;;;;;;;4.97;1.42;;;;;;;;;;5039494;28;20057;-70
2023/05/04 07:34:40;;;;;;;3.80;1.90;;;;;;;;;;5041303;28;20056;-70
2023/05/04 07:37:14;;;;;;;5.07;1.98;;;;;;;;;;5042405;28;20051;-70
2023/05/04 07:39:43;;;;;;;2.47;1.58;;;;;;;;;;5041831;28;20045;-70
2023/05/04 07:42:13;;;;;;;4.32;1.75;;;;;;;;;;5042156;28;20080;-70
2023/05/04 07:44:41;;;;;;;3.88;2.03;;;;;;;;;;5039666;28;20136;-70
2023/05/04 07:47:09;;;;;;;3.28;1.40;;;;;;;;;;5040108;28;20060;-70
2023/05/04 07:49:38;;;;;;;2.83;1.55;;;;;;;;;;5039879;28;20091;-70
2023/05/04 07:52:06;;;;;;;4.22;1.95;;;;;;;;;;5043249;28;20055;-70
2023/05/04 07:54:35;;;;;;;4.32;1.65;;;;;;;;;;5042565;28;20057;-70
2023/05/04 07:57:03;;;;;;;2.92;1.20;;;;;;;;;;5038114;28;20131;-70
2023/05/04 07:59:34;;;;;;;1.90;1.38;;;;;;;;;;5040373;28;20076;-70
2023/05/04 08:02:03;;;;;;;3.22;1.80;;;;;;;;;;5043197;28;20069;-70
2023/05/04 08:04:31;;;;;;;3.00;1.70;;;;;;;;;;5041021;28;20055;-70
2023/05/04 08:07:00;;;;;;;3.63;1.40;;;;;;;;;;5041329;28;20055;-71
2023/05/04 08:09:28;;;;;;;5.45;1.35;;;;;;;;;;5041474;28;20067;-70
2023/05/04 08:11:56;;;;;;;1.83;1.13;;;;;;;;;;5040492;28;20393;-70
2023/05/04 08:14:25;;;;;;;2.17;1.52;;;;;;;;;;5043767;28;20106;-70
2023/05/04 08:16:55;;;;;;;2.83;1.27;;;;;;;;;;5036486;28;20515;-71
2023/05/04 08:19:23;;;;;;;2.80;1.60;;;;;;;;;;5041395;28;20472;-70
2023/05/04 08:21:51;;;;;;;2.65;1.50;;;;;;;;;;5040797;28;20182;-70
2023/05/04 08:24:20;;;;;;;4.78;2.00;;;;;;;;;;5040866;28;20041;-70
2023/05/04 08:26:48;;;;;;;1.80;1.27;;;;;;;;;;5038225;28;20065;-70
2023/05/04 08:29:35;;;;;;;4.93;1.98;;;;;;;;;;5042150;28;20598;-70
2023/05/04 08:32:06;;;;;;;3.55;1.35;;;;;;;;;;5039618;28;20085;-70
2023/05/04 08:34:36;;;;;;;2.70;1.20;;;;;;;;;;5042065;28;20085;-70
2023/05/04 08:37:04;;;;;;;1.23;1.08;;;;;;;;;;5041229;28;20400;-70
2023/05/04 08:39:33;;;;;;;2.28;1.30;;;;;;;;;;5038703;28;20443;-70
2023/05/04 08:42:02;;;;;;;3.72;1.98;;;;;;;;;;5041561;28;20123;-70
2023/05/04 08:44:30;;;;;;;3.97;1.80;;;;;;;;;;5040912;28;20041;-71
2023/05/04 08:46:59;;;;;;;2.40;1.42;;;;;;;;;;5041593;28;20543;-70
2023/05/04 08:49:29;;;;;;;3.08;1.35;;;;;;;;;;5041247;28;20041;-70
2023/05/04 08:51:58;;;;;;;2.17;1.83;;;;;;;;;;5042227;28;20073;-71
2023/05/04 08:54:27;;;;;;;4.03;1.83;;;;;;;;;;5042522;28;20997;-71
2023/05/04 08:56:57;;;;;;;3.08;1.30;;;;;;;;;;5041318;28;20131;-71
2023/05/04 08:59:27;;;;;;;3.45;1.23;;;;;;;;;;5044074;28;20442;-72
2023/05/04 09:01:58;;;;;;;2.70;1.35;;;;;;;;;;5042529;28;20443;-71
2023/05/04 09:04:26;;;;;;;4.57;1.92;;;;;;;;;;5044766;28;20044;-71
2023/05/04 09:06:58;;;;;;;3.17;1.20;;;;;;;;;;5043783;28;20048;-70
2023/05/04 09:09:28;;;;;;;2.47;1.50;;;;;;;;;;5045199;28;20052;-71
2023/05/04 09:11:57;;;;;;;4.40;1.20;;;;;;;;;;5042041;28;20132;-70
2023/05/04 09:14:32;;;;;;;3.58;1.77;;;;;;;;;;5041255;28;20376;-71
2023/05/04 09:17:00;;;;;;;2.88;1.65;;;;;;;;;;5045484;28;20048;-70
2023/05/04 09:19:32;;;;;;;2.00;1.33;;;;;;;;;;5044425;28;20410;-71
2023/05/04 09:22:02;;;;;;;2.50;1.35;;;;;;;;;;5042294;28;20136;-71
2023/05/04 09:24:31;;;;;;;1.83;1.10;;;;;;;;;;5041980;28;20048;-70
2023/05/04 09:27:10;;;;;;;4.03;1.67;;;;;;;;;;5041896;28;20432;-71
2023/05/04 09:29:39;;;;;;;2.33;1.20;;;;;;;;;;5043850;28;20059;-70
2023/05/04 09:32:13;;;;;;;2.17;1.20;;;;;;;;;;5044019;28;20053;-70
2023/05/04 09:34:48;;;;;;;1.75;1.00;;;;;;;;;;5045125;28;20131;-71
2023/05/04 09:37:19;;;;;;;3.00;1.55;;;;;;;;;;5041975;28;20140;-70
2023/05/04 09:39:54;;;;;;;3.38;1.50;;;;;;;;;;5045264;28;20068;-69
2023/05/04 09:42:22;;;;;;;;;;;;;;;;;;5041731;28;20041;-70
2023/05/04 09:45:00;;;;;;;2.58;1.20;;;;;;;;;;5043121;28;19966;-70
2023/05/04 09:47:36;;;;;;;1.75;1.23;;;;;;;;;;5041559;28;20045;-70
2023/05/04 09:50:11;;;;;;;3.67;1.48;;;;;;;;;;5042624;28;20126;-71
2023/05/04 09:52:42;;;;;;;5.22;1.33;;;;;;;;;;5042142;28;20063;-71
2023/05/04 09:55:13;;;;;;;2.00;1.30;;;;;;;;;;5041778;28;20053;-71
2023/05/04 09:57:42;;;;;;;3.20;1.25;;;;;;;;;;5042038;28;20080;-71
2023/05/04 10:00:12;;;;;;;2.90;1.35;;;;;;;;;;5040044;28;20131;-71
2023/05/04 10:02:41;;;;;;;1.58;1.00;;;;;;;;;;5044107;28;20106;-71
2023/05/04 10:05:10;;;;;;;2.28;1.33;;;;;;;;;;5043303;28;20048;-70
2023/05/04 10:07:38;;;;;;;3.30;1.40;;;;;;;;;;5040982;28;21033;-71
2023/05/04 10:10:10;;;;;;;3.40;1.67;;;;;;;;;;5045422;28;20040;-71
2023/05/04 10:12:39;;;;;;;2.85;1.70;;;;;;;;;;5042672;28;20414;-71
2023/05/04 10:15:08;;;;;;;2.83;1.73;;;;;;;;;;5042757;28;20114;-70
2023/05/04 10:17:48;;;;;;;2.65;1.77;;;;;;;;;;5042205;28;20063;-71
2023/05/04 10:20:24;;;;;;;1.83;1.15;;;;;;;;;;5043557;28;20049;-71
2023/05/04 10:22:59;;;;;;;4.57;1.67;;;;;;;;;;5042918;28;20067;-71
2023/05/04 10:25:48;;;;;;;5.05;1.30;;;;;;;;;;5041252;28;20079;-71
2023/05/04 10:28:25;;;;;;;2.13;1.10;;;;;;;;;;5032647;28;20136;-71
2023/05/04 10:30:56;;;;;;;3.35;1.60;;;;;;;;;;5043569;28;20079;-71
2023/05/04 10:33:25;;;;;;;6.88;1.50;;;;;;;;;;5042080;28;20053;-71
2023/05/04 10:35:54;;;;;;;4.70;2.00;;;;;;;;;;5042684;28;20087;-71
2023/05/04 10:38:32;;;;;;;2.53;1.98;;;;;;;;;;5042449;28;20051;-71
2023/05/04 10:41:00;;;;;;;2.38;1.30;;;;;;;;;;5044131;28;20082;-71
2023/05/04 10:43:31;;;;;;;2.55;1.40;;;;;;;;;;5042301;28;20079;-71
2023/05/04 10:46:01;;;;;;;3.03;1.67;;;;;;;;;;5042894;28;20051;-71
2023/05/04 10:48:35;;;;;;;2.67;1.52;;;;;;;;;;5042653;28;20136;-71
2023/05/04 10:51:04;;;;;;;2.00;1.50;;;;;;;;;;5041770;28;20048;-71
2023/05/04 10:53:33;;;;;;;2.88;1.33;;;;;;;;;;5041334;28;20465;-71
2023/05/04 10:56:01;;;;;;;7.38;1.30;;;;;;;;;;5045041;28;20068;-70
2023/05/04 10:58:31;;;;;;;1.70;1.05;;;;;;;;;;5043165;28;20073;-72
2023/05/04 11:00:59;;;;;;;2.65;1.52;;;;;;;;;;5043019;28;20060;-70
2023/05/04 11:03:38;;;;;;;2.53;1.35;;;;;;;;;;5038495;28;20076;-70
2023/05/04 11:06:15;;;;;;;5.00;1.05;;;;;;;;;;5038960;28;20072;-69
2023/05/04 11:08:44;;;;;;;2.60;1.63;;;;;;;;;;5041012;28;20445;-69
2023/05/04 11:11:12;;;;;;;2.67;1.35;;;;;;;;;;5040952;28;20051;-70
2023/05/04 11:13:45;;;;;;;2.40;1.25;;;;;;;;;;5038805;28;20045;-70
2023/05/04 11:16:14;;;;;;;3.80;1.85;;;;;;;;;;5041047;28;20149;-70
2023/05/04 11:18:42;;;;;;;6.32;2.10;;;;;;;;;;5042745;28;20045;-70
2023/05/04 11:21:10;;;;;;;2.42;1.23;;;;;;;;;;5042297;28;20056;-70
2023/05/04 11:23:39;;;;;;;2.65;1.08;;;;;;;;;;5040667;28;20037;-70
2023/05/04 11:26:08;;;;;;;3.45;1.40;;;;;;;;;;5040137;28;20131;-69
2023/05/04 11:28:37;;;;;;;3.03;1.48;;;;;;;;;;5042060;28;20057;-70
2023/05/04 11:31:16;;;;;;;3.75;1.65;;;;;;;;;;5043169;28;20057;-69
2023/05/04 11:33:45;;;;;;;3.42;1.80;;;;;;;;;;5037955;28;20558;-70
2023/05/04 11:36:14;;;;;;;3.70;1.70;;;;;;;;;;5039937;28;20106;-68
2023/05/04 11:38:43;;;;;;;3.70;1.50;;;;;;;;;;5041171;28;20045;-70
2023/05/04 11:41:12;;;;;;;4.53;1.75;;;;;;;;;;5042010;28;20084;-71
2023/05/04 11:43:42;;;;;;;4.95;2.33;;;;;;;;;;5041492;28;20049;-71
2023/05/04 11:46:11;;;;;;;3.00;1.98;;;;;;;;;;5038451;28;20044;-70
2023/05/04 11:48:41;;;;;;;4.15;1.85;;;;;;;;;;5042480;28;20071;-70
2023/05/04 11:51:10;;;;;;;4.10;1.92;;;;;;;;;;5037751;28;20110;-71
2023/05/04 11:53:38;;;;;;;5.55;1.60;;;;;;;;;;5037902;28;20061;-71
2023/05/04 11:56:08;;;;;;;5.60;2.67;;;;;;;;;;5039605;28;20045;-72
2023/05/04 11:58:37;;;;;;;2.35;1.63;;;;;;;;;;5037323;28;20551;-72
2023/05/04 12:01:05;;;;;;;6.85;2.10;;;;;;;;;;5037889;28;20063;-72
2023/05/04 12:03:38;;;;;;;6.15;1.90;;;;;;;;;;5041844;28;20139;-72
2023/05/04 12:06:30;;;;;;;3.92;1.95;;;;;;;;;;5041379;28;20063;-72
2023/05/04 12:09:02;;;;;;;4.22;1.38;;;;;;;;;;5040634;28;20111;-72
2023/05/04 12:11:32;;;;;;;2.28;1.50;;;;;;;;;;5039860;28;20409;-71
2023/05/04 12:14:04;;;;;;;2.42;1.60;;;;;;;;;;5040470;28;21359;-71
2023/05/04 12:16:33;;;;;;;4.45;2.08;;;;;;;;;;5039971;28;20061;-71
2023/05/04 12:19:03;;;;;;;3.53;1.40;;;;;;;;;;5041451;28;20498;-72
2023/05/04 12:21:33;;;;;;;2.95;1.20;;;;;;;;;;5043680;28;20077;-71
2023/05/04 12:24:02;;;;;;;2.40;1.40;;;;;;;;;;5041202;28;20047;-72
2023/05/04 12:26:31;;;;;;;4.93;2.75;;;;;;;;;;5043957;28;20480;-72
2023/05/04 12:28:59;;;;;;;5.82;2.42;;;;;;;;;;5044356;28;20051;-71
2023/05/04 12:31:29;;;;;;;4.43;2.00;;;;;;;;;;5045865;28;20048;-71
2023/05/04 12:33:57;;;;;;;3.55;2.00;;;;;;;;;;5043971;28;20387;-72
2023/05/04 12:36:25;;;;;;;3.60;2.00;;;;;;;;;;5043514;28;20091;-71
2023/05/04 12:38:55;;;;;;;3.72;2.35;;;;;;;;;;5041806;28;20068;-70
2023/05/04 12:41:24;;;;;;;5.05;2.05;;;;;;;;;;5045247;28;20493;-69
2023/05/04 12:43:52;;;;;;;3.13;1.73;;;;;;;;;;5044948;28;20051;-69
2023/05/04 12:46:21;;;;;;;3.03;1.90;;;;;;;;;;5042574;28;20128;-69
2023/05/04 12:48:50;;;;;;;5.40;2.15;;;;;;;;;;5045388;28;21680;-70
2023/05/04 12:51:18;;;;;;;3.95;1.73;;;;;;;;;;5045234;28;20172;-70
2023/05/04 12:53:46;;;;;;;4.55;2.13;;;;;;;;;;5042883;28;20509;-70
2023/05/04 12:56:16;;;;;;;7.25;2.08;;;;;;;;;;5044777;28;20059;-70
2023/05/04 12:58:44;;;;;;;4.30;2.17;;;;;;;;;;5040807;28;20049;-71
2023/05/04 13:01:13;;;;;;;4.25;2.30;;;;;;;;;;5043603;28;20104;-71
2023/05/04 13:03:41;;;;;;;7.05;2.08;;;;;;;;;;5040286;28;20486;-70
2023/05/04 13:06:10;;;;;;;5.60;2.28;;;;;;;;;;5037100;28;20053;-71
2023/05/04 13:08:38;;;;;;;7.68;2.17;;;;;;;;;;5040031;28;20053;-70
2023/05/04 13:11:07;;;;;;;5.07;2.10;;;;;;;;;;5041123;28;20053;-70
2023/05/04 13:13:37;;;;;;;3.97;2.47;;;;;;;;;;5043023;28;20140;-69
2023/05/04 13:16:05;;;;;;;3.15;1.60;;;;;;;;;;5044031;28;20053;-69
2023/05/04 13:18:34;;;;;;;3.60;1.70;;;;;;;;;;5045696;28;20063;-69
2023/05/04 13:21:02;;;;;;;2.47;1.45;;;;;;;;;;5040722;28;20498;-69
2023/05/04 13:23:30;;;;;;;2.97;1.50;;;;;;;;;;5040357;28;20041;-69
2023/05/04 13:25:59;;;;;;;7.85;1.70;;;;;;;;;;5044547;28;20468;-69
2023/05/04 13:28:28;;;;;;;2.08;1.55;;;;;;;;;;5045104;28;20049;-69
2023/05/04 13:30:57;;;;;;;2.72;1.40;;;;;;;;;;5042893;28;20050;-69
2023/05/04 13:33:26;;;;;;;3.63;1.48;;;;;;;;;;5041854;28;20053;-69
2023/05/04 13:35:57;;;;;;;2.65;1.42;;;;;;;;;;5041463;28;20076;-69
2023/05/04 13:38:26;;;;;;;3.15;1.98;;;;;;;;;;5040522;28;20045;-69
2023/05/04 13:40:54;;;;;;;3.08;1.42;;;;;;;;;;5042402;28;20826;-69
2023/05/04 13:43:23;;;;;;;2.83;1.48;;;;;;;;;;5041912;28;20406;-69
2023/05/04 13:45:51;;;;;;;2.50;1.48;;;;;;;;;;5040844;28;20126;-69
2023/05/04 13:48:21;;;;;;;5.05;1.30;;;;;;;;;;5041561;28;20530;-69
2023/05/04 13:50:50;;;;;;;3.67;1.70;;;;;;;;;;5041596;28;20140;-69
2023/05/04 13:53:18;;;;;;;2.97;1.60;;;;;;;;;;5042873;28;20586;-69
2023/05/04 13:55:47;;;;;;;2.80;1.40;;;;;;;;;;5041347;28;20041;-69
2023/05/04 13:58:15;;;;;;;4.55;2.47;;;;;;;;;;5042868;28;20051;-69
2023/05/04 14:00:44;;;;;;;3.88;1.05;;;;;;;;;;5040931;28;20056;-69
2023/05/04 14:03:12;;;;;;;2.45;1.52;;;;;;;;;;5043918;28;20164;-69
2023/05/04 14:05:42;;;;;;;4.32;1.50;;;;;;;;;;5039061;28;20057;-69
2023/05/04 14:08:10;;;;;;;2.97;1.42;;;;;;;;;;5039229;28;20048;-69
2023/05/04 14:10:39;;;;;;;3.47;1.52;;;;;;;;;;5038462;28;20080;-69
2023/05/04 14:13:07;;;;;;;2.47;1.10;;;;;;;;;;5037312;28;20495;-69
2023/05/04 14:15:36;;;;;;;3.70;1.73;;;;;;;;;;5039448;28;20158;-69
2023/05/04 14:18:04;;;;;;;2.60;1.67;;;;;;;;;;5043700;28;20040;-69
2023/05/04 14:20:33;;;;;;;3.13;1.13;;;;;;;;;;5041628;28;20128;-69
2023/05/04 14:23:03;;;;;;;1.48;1.05;;;;;;;;;;5045531;28;20102;-69
2023/05/04 14:25:31;;;;;;;4.68;1.27;;;;;;;;;;5042551;28;20140;-69
2023/05/04 14:27:59;;;;;;;2.13;1.02;;;;;;;;;;5042387;28;20152;-69
2023/05/04 14:30:28;;;;;;;4.25;1.45;;;;;;;;;;5039986;28;20120;-69
2023/05/04 14:32:56;;;;;;;2.40;1.40;;;;;;;;;;5040485;28;20112;-69
2023/05/04 14:35:25;;;;;;;3.63;1.27;;;;;;;;;;5042919;28;20410;-69
2023/05/04 14:37:54;;;;;;;2.03;1.00;;;;;;;;;;5043309;28;20055;-69
2023/05/04 14:40:23;;;;;;;1.88;1.27;;;;;;;;;;5038156;28;20067;-69
2023/05/04 14:42:52;;;;;;;5.00;1.27;;;;;;;;;;5042096;28;20414;-69
2023/05/04 14:45:20;;;;;;;1.52;0.80;;;;;;;;;;5037202;28;20055;-69
2023/05/04 14:47:48;;;;;;;3.58;1.73;;;;;;;;;;5042536;28;20545;-69
2023/05/04 14:50:17;;;;;;;3.33;1.40;;;;;;;;;;5040476;28;20165;-69
2023/05/04 14:52:45;;;;;;;1.75;1.05;;;;;;;;;;5042343;28;20140;-69
2023/05/04 14:55:14;;;;;;;1.92;1.30;;;;;;;;;;5040194;28;20045;-69